Airfield :
LOGIN :

Register | Disclaimer

   EN    FR    IT 

 










Legend :    VFR   Marginal VFR   IFR   Intensive IFR   Very Intensive IFR
Visi :
Ceiling :
>= 8 km
>= 3000ft
5 to 8 km
1000 to 3000 ft
1500m to 5 km
500 to 1000 ft
800 to 1500m
200 to 500 ft
< 800m
< 200 ft
Symbols :   Thunderstorms  Fog  Heavy snow  Heavy precipitations  Wind > 20 kt
SIGMETs :     Misc.  Thunderstorms  Icing  Turbulence  Mountain Waves  Volcanic Ashes






- Airport Elevation : 3 ft
- IATA code : DHR


EHKD - Den Helder De Kooy

CURRENT METAR :
  • 080255Z AUTO 21028G38KT 180V240 9999 OVC014 10/07 Q1000 GRN

EXPIRED METARs :
  • 080225Z AUTO 21027G37KT 9999 OVC012 10/07 Q1001 GRN
  • 080155Z AUTO 21027G37KT 180V240 9999 BKN011 OVC014 10/08 Q1002 GRN
  • 080127Z AUTO 21026KT 9999 BKN013 BKN016 OVC020 10/08 Q1002 GRN
  • 080125Z AUTO 21027KT 9999 FEW013 BKN015 OVC019 10/08 Q1002 WHT
  • 080057Z AUTO 21025KT 180V240 9999 FEW009 BKN010 BKN013 10/08 Q1003 GRN
  • 080055Z AUTO 21025G38KT 9999 FEW009 SCT010 BKN015 10/08 Q1003 GRN
  • 080044Z AUTO 21023KT 180V250 9999 FEW009 SCT010 BKN013 10/08 Q1004 GRN
  • 080036Z AUTO 21024KT 180V250 9999 FEW008 SCT012 BKN017 10/08 Q1004 GRN
  • 080025Z AUTO 21022G32KT 180V240 9999 SCT007 BKN008 BKN014 09/08 Q1004 GRN
  • 080001Z AUTO 21022G32KT 180V240 9999 SCT007 BKN009 BKN013 09/08 Q1005 GRN

TAF TAF EHKD
Valid from the 08 at 02:00 until the 08 at 14:00 UTC


080143Z 0802/0814 21026G36KT 9999 BKN012 OVC015
TEMPO 0804/0809 22028G40KT 3500 RADZ FEW006 BKN008 OVC010
BECMG 0809/0811 25020G32KT SCT020 BKN030
TEMPO 0809/0814 25022G36KT SCT016CB BKN030



MET'MAP, your aeronautical weather chart ! - Copyright ORBIFLY December 2007 - Disclaimer

ORBIFLY MET'MAP TEAM :

Programming & Development : Alexandra Zaïnal
Concept & original design : Baudouin d'Aumeries
Assistance for programming : Marc-Olivier Méhu
Technical & hardware support : Manuel Goepfert

Contact : metmap@orbifly.com




SOURCES & CREDITS :

   NOAA